Time;durP1;ratioP1;P1;durP2;ratioP2;P2;SDS_P1;SDS_P2;PMS_P1;PMS_P2;Temp;Humidity;BMP_temperature;BMP_pressure;BME280_temperature;BME280_humidity;BME280_pressure;Samples;Min_cycle;Max_cycle;Signal;HPM_P1;HPM_P2
2021/11/19 00:02:14;;;;;;;91.05;47.17;;;14.10;93.80;;;;;;5048810;28;20021;-59
2021/11/19 00:04:41;;;;;;;87.57;45.97;;;14.10;93.60;;;;;;5046312;28;20097;-59
2021/11/19 00:07:07;;;;;;;90.82;46.47;;;14.00;93.50;;;;;;5051368;28;20037;-59
2021/11/19 00:09:33;;;;;;;89.72;44.33;;;14.00;94.00;;;;;;5050337;28;20121;-59
2021/11/19 00:11:59;;;;;;;89.85;44.33;;;13.90;94.30;;;;;;5050584;28;20056;-59
2021/11/19 00:14:26;;;;;;;92.22;45.03;;;13.80;94.20;;;;;;5048254;28;20104;-59
2021/11/19 00:16:57;;;;;;;84.00;44.15;;;13.90;94.30;;;;;;5045821;28;20025;-60
2021/11/19 00:19:24;;;;;;;85.30;43.15;;;13.80;93.90;;;;;;5042382;28;20024;-59
2021/11/19 00:21:51;;;;;;;87.68;42.33;;;14.00;94.20;;;;;;5049455;28;20044;-59
2021/11/19 00:24:17;;;;;;;80.30;42.92;;;14.00;94.70;;;;;;5049737;28;20480;-57
2021/11/19 00:26:43;;;;;;;90.03;41.78;;;13.90;94.60;;;;;;5050015;28;20051;-59
2021/11/19 00:29:11;;;;;;;87.03;42.28;;;13.90;94.10;;;;;;5054505;28;20110;-59
2021/11/19 00:31:37;;;;;;;93.78;44.78;;;14.10;94.60;;;;;;5047688;28;20048;-59
2021/11/19 00:34:03;;;;;;;77.97;40.50;;;13.90;94.40;;;;;;5045031;28;20088;-59
2021/11/19 00:36:33;;;;;;;88.00;41.83;;;13.90;94.50;;;;;;5038906;28;20072;-58
2021/11/19 00:39:02;;;;;;;87.90;42.30;;;13.90;94.80;;;;;;5051588;28;20029;-59
2021/11/19 00:41:28;;;;;;;79.30;40.38;;;13.90;94.90;;;;;;5046407;28;20025;-59
2021/11/19 00:43:55;;;;;;;86.97;42.90;;;14.00;94.80;;;;;;5047543;28;20679;-58
2021/11/19 00:46:21;;;;;;;84.65;41.33;;;13.90;94.70;;;;;;5050482;28;20033;-58
2021/11/19 00:48:47;;;;;;;89.28;40.97;;;13.90;94.60;;;;;;5050420;28;20043;-58
2021/11/19 00:51:20;;;;;;;77.85;39.58;;;13.80;94.70;;;;;;5050811;28;20033;-59
2021/11/19 00:53:49;;;;;;;73.65;38.92;;;13.80;94.60;;;;;;5054961;28;20390;-60
2021/11/19 00:56:18;;;;;;;79.60;39.38;;;13.70;95.20;;;;;;5052371;28;20402;-59
2021/11/19 00:58:45;;;;;;;82.53;40.58;;;13.80;95.60;;;;;;5054254;28;20037;-59
2021/11/19 01:01:16;;;;;;;79.10;39.00;;;13.60;96.10;;;;;;5045633;28;20048;-59
2021/11/19 01:03:42;;;;;;;83.60;39.70;;;13.70;95.90;;;;;;5050553;28;20032;-58
2021/11/19 01:06:09;;;;;;;81.78;40.25;;;13.60;96.60;;;;;;5047300;28;20438;-59
2021/11/19 01:08:34;;;;;;;89.43;40.03;;;13.50;97.30;;;;;;5053550;28;20131;-58
2021/11/19 01:11:03;;;;;;;87.15;40.75;;;13.80;97.10;;;;;;5047068;28;20125;-59
2021/11/19 01:13:32;;;;;;;86.80;40.00;;;13.90;96.80;;;;;;5051580;28;20552;-59
2021/11/19 01:16:03;;;;;;;76.82;37.00;;;13.90;96.70;;;;;;5053303;28;20028;-59
2021/11/19 01:18:57;;;;;;;79.65;38.15;;;13.80;96.80;;;;;;5054408;28;20021;-59
2021/11/19 01:21:34;;;;;;;74.70;36.60;;;13.80;96.60;;;;;;5050882;28;20079;-59
2021/11/19 01:24:00;;;;;;;73.25;34.75;;;13.70;97.40;;;;;;5054944;28;20079;-59
2021/11/19 01:26:32;;;;;;;72.00;32.95;;;13.70;96.90;;;;;;5039181;28;20038;-59
2021/11/19 01:29:01;;;;;;;68.72;33.95;;;13.80;96.90;;;;;;5054828;28;20024;-59
2021/11/19 01:31:34;;;;;;;76.60;34.50;;;13.80;96.70;;;;;;5040530;28;20046;-59
2021/11/19 01:34:00;;;;;;;77.72;34.90;;;13.80;96.80;;;;;;5041494;28;20594;-60
2021/11/19 01:36:27;;;;;;;70.95;32.97;;;13.80;96.60;;;;;;5049918;28;20025;-59
2021/11/19 01:38:52;;;;;;;71.28;34.72;;;14.00;99.30;;;;;;5053761;28;20043;-59
2021/11/19 01:41:26;;;;;;;74.72;34.28;;;13.90;99.60;;;;;;5052911;28;20032;-60
2021/11/19 01:43:55;;;;;;;68.60;30.90;;;13.80;99.10;;;;;;5060784;28;20084;-59
2021/11/19 01:46:23;;;;;;;60.45;30.48;;;13.80;99.90;;;;;;5044608;28;20021;-60
2021/11/19 01:48:52;;;;;;;71.32;33.08;;;13.80;99.10;;;;;;5044449;28;20414;-59
2021/11/19 01:51:29;;;;;;;63.20;32.20;;;13.80;99.80;;;;;;5040159;28;20046;-59
2021/11/19 01:54:29;;;;;;;55.00;27.48;;;13.70;98.90;;;;;;5043404;28;20025;-59
2021/11/19 01:57:04;;;;;;;61.15;29.35;;;13.50;99.50;;;;;;5030351;28;20048;-59
2021/11/19 01:59:38;;;;;;;61.50;31.17;;;13.70;99.90;;;;;;5049115;28;20452;-59
2021/11/19 02:02:15;;;;;;;58.53;29.83;;;13.70;99.90;;;;;;5043240;28;20096;-60
2021/11/19 02:04:45;;;;;;;59.90;28.65;;;13.80;99.90;;;;;;5051098;28;20037;-59
2021/11/19 02:07:22;;;;;;;52.88;27.25;;;13.80;99.80;;;;;;5046958;28;20486;-59
2021/11/19 02:10:00;;;;;;;60.35;28.25;;;13.70;98.20;;;;;;5045297;28;20025;-59
2021/11/19 02:12:41;;;;;;;55.03;28.90;;;13.70;99.30;;;;;;5043510;28;20033;-59
2021/11/19 02:15:26;;;;;;;56.28;29.40;;;13.70;99.10;;;;;;5052960;28;20445;-60
2021/11/19 02:17:55;;;;;;;60.30;28.48;;;13.70;99.50;;;;;;5043760;28;20029;-59
2021/11/19 02:20:36;;;;;;;52.40;28.35;;;13.60;98.20;;;;;;5043971;28;20029;-59
2021/11/19 02:23:29;;;;;;;55.13;27.25;;;13.70;99.10;;;;;;5052484;28;20075;-59
2021/11/19 02:26:15;;;;;;;56.85;27.70;;;13.60;99.40;;;;;;5048691;28;20422;-59
2021/11/19 02:28:43;;;;;;;49.17;25.73;;;13.40;99.10;;;;;;5050236;28;20123;-59
2021/11/19 02:31:15;;;;;;;50.63;25.65;;;13.50;99.70;;;;;;5045588;28;20498;-57
2021/11/19 02:33:44;;;;;;;53.58;26.38;;;13.60;99.70;;;;;;5044318;28;20075;-59
2021/11/19 02:36:13;;;;;;;43.20;23.85;;;13.70;99.00;;;;;;5050794;28;20025;-59
2021/11/19 02:38:53;;;;;;;59.45;28.77;;;13.60;98.80;;;;;;5040623;28;20039;-59
2021/11/19 02:41:22;;;;;;;49.33;26.00;;;13.60;98.70;;;;;;5046308;28;20021;-59
2021/11/19 02:44:01;;;;;;;47.03;25.13;;;13.60;98.40;;;;;;5052503;28;20021;-59
2021/11/19 02:46:31;;;;;;;46.83;25.92;;;13.60;98.80;;;;;;5038139;28;20534;-59
2021/11/19 02:48:57;;;;;;;47.00;23.33;;;13.60;98.10;;;;;;5051158;28;20107;-59
2021/11/19 02:51:24;;;;;;;45.17;24.67;;;13.60;98.00;;;;;;5050648;28;20021;-59
2021/11/19 02:53:50;;;;;;;48.28;23.90;;;13.60;97.90;;;;;;5046355;28;20409;-58
2021/11/19 02:56:17;;;;;;;51.08;23.40;;;13.70;98.10;;;;;;5042439;28;20029;-59
2021/11/19 02:58:47;;;;;;;48.45;24.33;;;13.70;98.00;;;;;;5052582;28;20451;-59
2021/11/19 03:01:30;;;;;;;42.70;23.15;;;13.60;97.70;;;;;;5043290;28;20029;-58
2021/11/19 03:04:11;;;;;;;43.35;24.98;;;13.80;97.70;;;;;;5052984;28;20324;-59
2021/11/19 03:06:49;;;;;;;49.10;25.70;;;13.70;97.30;;;;;;5043465;28;20032;-58
2021/11/19 03:09:18;;;;;;;48.58;24.63;;;13.70;97.80;;;;;;5050399;28;20025;-57
2021/11/19 03:11:45;;;;;;;43.33;22.58;;;13.80;97.60;;;;;;5044457;28;20025;-59
2021/11/19 03:14:12;;;;;;;44.90;23.08;;;13.80;97.40;;;;;;5041358;28;20030;-59
2021/11/19 03:16:37;;;;;;;42.28;22.80;;;13.90;97.30;;;;;;5042790;28;20017;-59
2021/11/19 03:19:08;;;;;;;40.38;20.70;;;13.80;97.30;;;;;;5039030;28;20025;-58
2021/11/19 03:24:55;;;;;;;46.67;24.27;;;13.70;97.50;;;;;;5048551;28;20107;-59
2021/11/19 03:27:23;;;;;;;42.13;22.05;;;13.70;97.60;;;;;;5049809;28;20044;-59
2021/11/19 03:29:49;;;;;;;40.95;21.42;;;13.70;97.10;;;;;;5050324;28;20029;-58
2021/11/19 03:32:18;;;;;;;45.70;23.52;;;13.60;97.40;;;;;;5050294;28;20059;-59
2021/11/19 03:34:44;;;;;;;39.80;21.15;;;13.60;97.50;;;;;;5049610;28;20421;-59
2021/11/19 03:37:10;;;;;;;44.75;22.77;;;13.50;97.30;;;;;;5040939;28;20086;-59
2021/11/19 03:39:37;;;;;;;43.00;21.77;;;13.70;97.40;;;;;;5046567;28;20074;-59
2021/11/19 03:42:04;;;;;;;42.13;21.55;;;13.60;97.40;;;;;;5050989;28;20219;-59
2021/11/19 03:44:57;;;;;;;40.88;21.08;;;13.50;97.40;;;;;;5043140;28;20075;-59
2021/11/19 03:47:28;;;;;;;43.40;23.55;;;13.50;97.40;;;;;;5046485;28;20094;-59
2021/11/19 03:49:55;;;;;;;41.67;21.20;;;13.40;97.10;;;;;;5045291;28;20036;-59
2021/11/19 03:52:30;;;;;;;42.72;21.83;;;13.40;98.00;;;;;;5042470;28;20037;-59
2021/11/19 03:54:58;;;;;;;35.70;19.83;;;13.50;97.40;;;;;;5049272;28;20037;-59
2021/11/19 03:57:24;;;;;;;37.47;21.08;;;13.50;97.50;;;;;;5049552;28;20474;-59
2021/11/19 03:59:51;;;;;;;38.38;20.75;;;13.50;97.10;;;;;;5051186;28;20064;-58
2021/11/19 04:02:19;;;;;;;39.33;19.83;;;13.40;97.10;;;;;;5053080;28;20494;-58
2021/11/19 04:04:45;;;;;;;35.42;19.90;;;13.40;97.20;;;;;;5047009;28;20544;-59
2021/11/19 04:07:13;;;;;;;39.70;20.95;;;13.50;97.20;;;;;;5051341;28;20056;-58
2021/11/19 04:09:39;;;;;;;40.13;21.10;;;13.70;97.00;;;;;;5052216;28;20025;-59
2021/11/19 04:12:06;;;;;;;39.15;21.85;;;13.50;96.60;;;;;;5050236;28;20047;-57
2021/11/19 04:14:33;;;;;;;36.42;19.60;;;13.40;96.60;;;;;;5046740;28;20108;-57
2021/11/19 04:16:59;;;;;;;41.13;19.50;;;13.30;96.80;;;;;;5047281;28;20017;-58
2021/11/19 04:19:28;;;;;;;41.30;21.52;;;13.50;97.00;;;;;;5054772;28;20066;-58
2021/11/19 04:21:56;;;;;;;38.08;21.02;;;13.50;97.00;;;;;;5053250;28;20031;-58
2021/11/19 04:24:27;;;;;;;36.58;21.10;;;13.50;97.00;;;;;;5053131;28;20507;-58
2021/11/19 04:26:53;;;;;;;36.65;19.80;;;13.50;96.90;;;;;;5051980;28;20102;-60
2021/11/19 04:29:19;;;;;;;42.03;22.25;;;13.50;96.00;;;;;;5045197;28;20029;-58
2021/11/19 04:31:45;;;;;;;37.90;21.05;;;13.50;96.80;;;;;;5051283;28;20048;-58
2021/11/19 04:34:12;;;;;;;40.03;22.60;;;13.50;96.30;;;;;;5053614;28;20068;-59
2021/11/19 04:36:38;;;;;;;37.53;20.63;;;13.50;95.90;;;;;;5065681;28;20492;-59
2021/11/19 04:39:06;;;;;;;35.67;21.30;;;13.50;96.10;;;;;;5052784;28;20421;-59
2021/11/19 04:41:32;;;;;;;38.47;20.35;;;13.60;96.50;;;;;;5052170;28;20029;-60
2021/11/19 04:43:58;;;;;;;38.17;20.38;;;13.70;96.30;;;;;;5054101;28;20031;-59
2021/11/19 04:46:24;;;;;;;44.08;20.15;;;13.50;95.90;;;;;;5050648;28;20103;-59
2021/11/19 04:48:50;;;;;;;40.53;22.17;;;13.50;96.60;;;;;;5051375;28;20072;-60
2021/11/19 04:51:23;;;;;;;38.60;21.23;;;13.40;96.50;;;;;;5050106;28;20024;-60
2021/11/19 04:53:49;;;;;;;39.75;22.95;;;13.40;96.30;;;;;;5046587;28;20096;-59
2021/11/19 04:56:15;;;;;;;44.65;23.52;;;13.50;96.60;;;;;;5043920;28;20486;-59
2021/11/19 04:58:42;;;;;;;41.15;21.63;;;13.60;96.20;;;;;;5046562;28;20095;-59
2021/11/19 05:01:20;;;;;;;40.72;21.20;;;13.50;96.20;;;;;;5052721;28;20109;-59
2021/11/19 05:03:46;;;;;;;37.47;21.30;;;13.50;96.00;;;;;;5052944;28;20474;-59
2021/11/19 05:06:13;;;;;;;33.90;21.13;;;13.50;96.20;;;;;;5053576;28;20160;-59
2021/11/19 05:08:40;;;;;;;43.53;23.60;;;13.50;96.20;;;;;;5052390;28;20123;-59
2021/11/19 05:11:09;;;;;;;44.88;23.75;;;13.60;96.10;;;;;;5053020;28;20355;-59
2021/11/19 05:13:37;;;;;;;42.50;23.42;;;13.40;96.10;;;;;;5051471;28;20396;-59
2021/11/19 05:16:06;;;;;;;43.75;23.52;;;13.50;95.70;;;;;;5051153;28;20449;-59
2021/11/19 05:18:32;;;;;;;41.65;22.75;;;13.40;96.10;;;;;;5049837;28;20035;-59
2021/11/19 05:20:58;;;;;;;43.10;23.80;;;13.40;95.80;;;;;;5039862;28;20025;-59
2021/11/19 05:23:25;;;;;;;37.35;22.38;;;13.50;96.00;;;;;;5046200;28;20033;-59
2021/11/19 05:25:50;;;;;;;38.65;22.25;;;13.40;96.20;;;;;;5047730;28;20028;-59
2021/11/19 05:28:19;;;;;;;40.03;22.48;;;13.40;95.90;;;;;;5050003;28;20037;-58
2021/11/19 05:30:45;;;;;;;40.45;23.55;;;13.40;96.30;;;;;;5046992;28;20494;-59
2021/11/19 05:33:15;;;;;;;41.70;22.95;;;13.40;96.20;;;;;;5050979;28;20122;-59
2021/11/19 05:35:40;;;;;;;41.63;22.10;;;13.40;95.70;;;;;;5065574;28;20657;-60
2021/11/19 05:38:06;;;;;;;40.25;20.60;;;13.40;95.70;;;;;;5041575;28;20071;-59
2021/11/19 05:40:32;;;;;;;40.05;21.23;;;13.40;95.70;;;;;;5043158;28;20029;-60
2021/11/19 05:42:58;;;;;;;38.97;20.77;;;13.50;95.80;;;;;;5046955;28;20112;-60
2021/11/19 05:45:26;;;;;;;40.13;21.98;;;13.40;95.80;;;;;;5050946;28;20028;-60
2021/11/19 05:47:52;;;;;;;39.05;20.30;;;13.50;95.90;;;;;;5050290;28;20045;-59
2021/11/19 05:50:20;;;;;;;36.13;19.77;;;13.30;95.60;;;;;;5040324;28;20112;-59
2021/11/19 05:52:47;;;;;;;33.75;19.85;;;13.10;95.70;;;;;;5044272;28;20033;-59
2021/11/19 05:55:17;;;;;;;39.03;19.58;;;13.10;95.50;;;;;;5051453;28;20463;-59
2021/11/19 05:57:43;;;;;;;36.75;21.08;;;13.20;95.00;;;;;;5052748;28;20037;-59
2021/11/19 06:00:15;;;;;;;44.85;22.27;;;13.20;95.80;;;;;;5042542;28;20032;-59
2021/11/19 06:02:40;;;;;;;39.55;20.30;;;13.10;95.80;;;;;;5048663;28;20033;-59
2021/11/19 06:05:07;;;;;;;43.25;22.65;;;13.00;96.30;;;;;;5050167;28;20025;-59
2021/11/19 06:07:32;;;;;;;43.28;23.27;;;13.20;96.30;;;;;;5051308;28;20064;-59
2021/11/19 06:09:59;;;;;;;44.92;23.55;;;13.30;96.10;;;;;;5049714;28;20115;-58
2021/11/19 06:12:29;;;;;;;41.97;22.10;;;13.20;96.60;;;;;;5052279;28;20084;-59
2021/11/19 06:14:59;;;;;;;46.78;24.77;;;13.20;96.30;;;;;;5051960;28;20025;-59
2021/11/19 06:17:30;;;;;;;46.17;24.65;;;13.20;96.90;;;;;;5050576;28;20056;-58
2021/11/19 06:19:59;;;;;;;44.38;22.25;;;13.30;96.70;;;;;;5062252;28;20053;-59
2021/11/19 06:22:37;;;;;;;49.60;24.85;;;13.30;96.60;;;;;;5052148;28;20535;-59
2021/11/19 06:25:06;;;;;;;44.53;23.52;;;13.40;96.40;;;;;;5052296;28;20021;-58
2021/11/19 06:27:35;;;;;;;50.58;23.77;;;13.30;96.10;;;;;;5050545;28;20059;-59
2021/11/19 06:30:03;;;;;;;51.92;25.33;;;13.40;96.40;;;;;;5048087;28;20055;-60
2021/11/19 06:32:28;;;;;;;50.10;23.30;;;13.40;96.70;;;;;;5045814;28;20491;-59
2021/11/19 06:34:54;;;;;;;50.80;24.52;;;13.40;95.80;;;;;;5050176;28;20033;-59
2021/11/19 06:37:21;;;;;;;48.38;24.63;;;13.40;96.20;;;;;;5048621;28;20178;-59
2021/11/19 06:39:47;;;;;;;49.45;23.48;;;13.20;96.60;;;;;;5052854;28;20485;-59
2021/11/19 06:42:14;;;;;;;49.13;23.55;;;13.50;96.80;;;;;;5046393;28;20393;-59
2021/11/19 06:44:42;;;;;;;46.05;22.90;;;13.40;96.30;;;;;;5049878;28;20051;-59
2021/11/19 06:47:09;;;;;;;54.15;24.02;;;13.50;96.40;;;;;;5042801;28;20074;-59
2021/11/19 06:49:36;;;;;;;52.42;24.08;;;13.50;96.50;;;;;;5046182;28;20692;-59
2021/11/19 06:52:04;;;;;;;52.05;24.35;;;13.50;96.20;;;;;;5047180;28;20033;-59
2021/11/19 06:54:30;;;;;;;46.80;23.55;;;13.70;96.40;;;;;;5063137;28;20025;-60
2021/11/19 06:56:57;;;;;;;50.38;23.27;;;;;;;;;;5046904;28;20036;-60
2021/11/19 06:59:23;;;;;;;52.85;22.90;;;;;;;;;;5051968;28;20060;-59
2021/11/19 07:01:49;;;;;;;45.50;22.75;;;13.50;99.90;;;;;;5044420;28;20063;-59
2021/11/19 07:04:15;;;;;;;46.78;21.88;;;;;;;;;;5048956;28;20491;-59
2021/11/19 07:06:41;;;;;;;48.55;22.23;;;;;;;;;;5050491;28;20037;-60
2021/11/19 07:09:09;;;;;;;41.28;20.52;;;13.30;99.90;;;;;;5052416;28;20122;-59
2021/11/19 07:11:36;;;;;;;46.90;23.40;;;;;;;;;;5040602;28;20490;-60
2021/11/19 07:14:01;;;;;;;46.63;22.35;;;13.20;99.90;;;;;;5038239;28;20025;-60
2021/11/19 07:16:29;;;;;;;46.75;22.80;;;13.40;99.90;;;;;;5042953;28;20025;-60
2021/11/19 07:18:56;;;;;;;54.22;24.00;;;13.50;99.90;;;;;;5051496;28;20033;-60
2021/11/19 07:21:24;;;;;;;51.08;22.02;;;13.50;99.90;;;;;;5044456;28;20033;-60
2021/11/19 07:23:50;;;;;;;45.78;24.08;;;13.60;99.90;;;;;;5046505;28;20521;-60
2021/11/19 07:26:16;;;;;;;47.72;22.88;;;13.60;99.90;;;;;;5050513;28;20057;-61
2021/11/19 07:28:44;;;;;;;64.60;29.20;;;13.60;99.90;;;;;;5042327;28;20048;-60
2021/11/19 07:31:10;;;;;;;49.22;24.40;;;13.30;99.90;;;;;;5033060;28;20041;-57
2021/11/19 07:33:38;;;;;;;57.80;26.38;;;13.40;99.90;;;;;;5047772;28;20041;-60
2021/11/19 07:36:06;;;;;;;53.45;23.40;;;13.50;99.90;;;;;;5051200;28;20078;-60
2021/11/19 07:38:32;;;;;;;47.53;25.05;;;13.60;99.90;;;;;;5047886;28;20025;-60
2021/11/19 07:40:58;;;;;;;45.17;20.80;;;13.60;99.90;;;;;;5052162;28;20082;-61
2021/11/19 07:43:27;;;;;;;47.88;23.63;;;13.60;99.90;;;;;;5046642;28;20044;-60
2021/11/19 07:45:55;;;;;;;50.58;24.27;;;13.50;99.90;;;;;;5048350;28;20080;-60
2021/11/19 07:48:23;;;;;;;59.78;25.08;;;;;;;;;;5045272;28;20052;-60
2021/11/19 07:50:50;;;;;;;47.47;23.10;;;;;;;;;;5050234;28;20033;-60
2021/11/19 07:53:17;;;;;;;53.75;23.70;;;;;;;;;;5047324;28;20062;-60
2021/11/19 07:55:44;;;;;;;56.08;25.23;;;;;;;;;;5051599;28;20029;-60
2021/11/19 07:58:10;;;;;;;54.17;25.45;;;;;;;;;;5045085;28;20112;-60
2021/11/19 08:00:38;;;;;;;48.97;22.83;;;13.50;99.90;;;;;;5047846;28;20121;-60
2021/11/19 08:03:04;;;;;;;52.47;24.15;;;13.70;99.90;;;;;;5042698;28;20025;-60
2021/11/19 08:05:30;;;;;;;49.97;23.42;;;13.60;99.90;;;;;;5045127;28;20029;-60
2021/11/19 08:07:56;;;;;;;52.50;25.02;;;13.80;99.90;;;;;;5038340;28;20045;-60
2021/11/19 08:10:22;;;;;;;52.88;23.00;;;13.60;99.90;;;;;;5044890;28;20029;-60
2021/11/19 08:12:48;;;;;;;57.95;25.65;;;13.70;99.90;;;;;;5042826;28;20082;-60
2021/11/19 08:15:16;;;;;;;51.28;25.80;;;13.60;99.90;;;;;;5047350;28;20143;-61
2021/11/19 08:17:45;;;;;;;56.42;24.77;;;13.70;99.90;;;;;;5048542;28;20039;-60
2021/11/19 08:20:18;;;;;;;59.65;25.70;;;13.70;99.90;;;;;;5039841;28;20040;-60
2021/11/19 08:22:44;;;;;;;59.38;26.15;;;13.80;99.90;;;;;;5045625;28;20554;-60
2021/11/19 08:25:10;;;;;;;56.55;24.40;;;13.70;99.90;;;;;;5049740;28;20120;-60
2021/11/19 08:27:40;;;;;;;59.30;24.80;;;13.70;99.90;;;;;;5050587;28;20044;-60
2021/11/19 08:30:11;;;;;;;56.50;25.38;;;13.70;99.90;;;;;;5043059;28;20112;-60
2021/11/19 08:32:37;;;;;;;52.38;23.88;;;13.60;99.90;;;;;;5049690;28;20053;-61
2021/11/19 08:35:03;;;;;;;55.88;24.63;;;13.80;99.90;;;;;;5040711;28;20533;-60
2021/11/19 08:37:31;;;;;;;49.85;23.05;;;;;;;;;;5046682;28;20033;-60
2021/11/19 08:39:57;;;;;;;55.47;25.92;;;;;;;;;;5035767;28;20546;-59
2021/11/19 08:42:24;;;;;;;52.20;24.60;;;;;;;;;;5045611;28;20028;-60
2021/11/19 08:44:50;;;;;;;61.92;25.65;;;;;;;;;;5049804;28;20028;-60
2021/11/19 08:47:17;;;;;;;55.35;25.23;;;;;;;;;;5047323;28;20068;-59
2021/11/19 08:49:44;;;;;;;55.97;25.25;;;13.50;99.90;;;;;;5049927;28;20021;-59
2021/11/19 08:52:13;;;;;;;55.55;24.10;;;13.60;99.90;;;;;;5047538;28;20064;-60
2021/11/19 08:54:40;;;;;;;54.72;24.85;;;13.60;99.90;;;;;;5053500;28;20033;-60
2021/11/19 08:57:10;;;;;;;50.33;24.00;;;13.60;99.90;;;;;;5054027;28;20440;-60
2021/11/19 08:59:38;;;;;;;54.38;24.67;;;13.50;99.90;;;;;;5049417;28;20040;-60
2021/11/19 09:02:05;;;;;;;57.50;25.85;;;13.50;99.90;;;;;;5046354;28;20029;-61
2021/11/19 09:04:32;;;;;;;47.80;23.13;;;13.50;99.90;;;;;;5048335;28;20087;-60
2021/11/19 09:06:58;;;;;;;58.95;26.30;;;13.60;99.90;;;;;;5052214;28;20037;-59
2021/11/19 09:09:24;;;;;;;52.95;25.13;;;13.60;99.90;;;;;;5044857;28;20036;-60
2021/11/19 09:11:50;;;;;;;57.47;26.33;;;13.70;99.90;;;;;;5050946;28;20044;-60
2021/11/19 09:14:17;;;;;;;54.95;25.70;;;13.80;99.90;;;;;;5053617;28;20471;-60
2021/11/19 09:17:05;;;;;;;56.38;25.45;;;13.90;99.90;;;;;;5050145;28;20025;-60
2021/11/19 09:19:40;;;;;;;54.10;24.15;;;13.90;99.90;;;;;;5053255;28;20021;-60
2021/11/19 09:22:18;;;;;;;53.80;25.13;;;13.70;99.90;;;;;;5063219;28;20040;-60
2021/11/19 09:24:44;;;;;;;50.92;22.13;;;13.90;99.90;;;;;;5037197;28;20040;-59
2021/11/19 09:27:16;;;;;;;51.03;23.05;;;13.90;99.90;;;;;;5048551;28;20487;-60
2021/11/19 09:29:52;;;;;;;54.75;24.23;;;13.80;99.90;;;;;;5048595;28;20057;-60
2021/11/19 09:32:20;;;;;;;50.30;21.95;;;13.70;99.90;;;;;;5052256;28;20041;-60
2021/11/19 09:34:49;;;;;;;50.03;22.58;;;13.80;99.90;;;;;;5045437;28;20043;-60
2021/11/19 09:37:17;;;;;;;53.65;23.45;;;13.90;99.90;;;;;;5047032;28;20048;-60
2021/11/19 09:39:45;;;;;;;52.17;24.88;;;13.90;99.90;;;;;;5048526;28;20447;-60
2021/11/19 09:42:29;;;;;;;58.00;24.63;;;14.10;99.90;;;;;;5046158;28;20111;-61
2021/11/19 09:45:16;;;;;;;57.67;25.95;;;14.10;99.90;;;;;;5053307;28;20029;-61
2021/11/19 09:48:05;;;;;;;59.28;24.08;;;14.10;99.90;;;;;;5050543;28;20056;-60
2021/11/19 09:51:08;;;;;;;50.13;25.25;;;14.10;99.90;;;;;;5045534;28;20078;-60
2021/11/19 09:53:52;;;;;;;55.75;26.00;;;14.10;99.90;;;;;;5046074;28;20025;-60
2021/11/19 09:56:49;;;;;;;55.15;25.52;;;14.10;99.90;;;;;;5052692;28;20033;-60
2021/11/19 09:59:38;;;;;;;60.17;26.02;;;14.20;99.90;;;;;;5063978;28;20108;-59
2021/11/19 10:02:06;;;;;;;56.30;26.48;;;14.10;99.90;;;;;;5049333;28;20500;-60
2021/11/19 10:04:54;;;;;;;60.13;27.13;;;14.00;99.90;;;;;;5051815;28;20060;-60
2021/11/19 10:07:26;;;;;;;52.47;25.48;;;14.10;99.90;;;;;;5051559;28;20575;-59
2021/11/19 10:10:10;;;;;;;56.80;27.48;;;14.10;99.90;;;;;;5064189;28;20049;-59
2021/11/19 10:12:45;;;;;;;60.00;26.90;;;14.20;99.90;;;;;;5044837;28;20381;-59
2021/11/19 10:15:19;;;;;;;55.67;27.30;;;14.00;99.90;;;;;;5040875;28;20087;-59
2021/11/19 10:18:07;;;;;;;59.63;27.43;;;14.20;99.90;;;;;;5051137;28;20394;-60
2021/11/19 10:20:48;;;;;;;56.42;28.02;;;14.10;99.90;;;;;;5044731;28;20040;-60
2021/11/19 10:23:25;;;;;;;55.13;27.25;;;14.10;99.90;;;;;;5052176;28;20021;-60
2021/11/19 10:26:04;;;;;;;60.42;29.85;;;14.10;99.90;;;;;;5051300;28;20029;-60
2021/11/19 10:28:59;;;;;;;62.15;28.77;;;14.10;99.90;;;;;;5051445;28;20037;-60
2021/11/19 10:31:27;;;;;;;63.45;30.13;;;14.10;99.90;;;;;;5027809;28;20041;-60
2021/11/19 10:34:45;;;;;;;57.95;28.00;;;14.10;99.90;;;;;;5049496;28;20033;-59
2021/11/19 10:37:17;;;;;;;65.80;29.92;;;14.30;99.90;;;;;;5037853;28;20060;-60
2021/11/19 10:39:52;;;;;;;57.65;28.13;;;14.30;99.90;;;;;;5040141;28;20025;-61
2021/11/19 10:42:48;;;;;;;64.13;28.17;;;14.10;99.90;;;;;;5052385;28;20048;-61
2021/11/19 10:45:24;;;;;;;62.40;27.02;;;14.20;99.90;;;;;;5047416;28;20100;-60
2021/11/19 10:48:20;;;;;;;53.90;26.77;;;14.30;99.90;;;;;;5051115;28;20037;-59
2021/11/19 10:51:07;;;;;;;59.65;27.85;;;14.30;99.90;;;;;;5047138;28;20025;-60
2021/11/19 10:54:04;;;;;;;55.10;27.58;;;14.40;99.90;;;;;;5044212;28;20094;-59
2021/11/19 10:56:29;;;;;;;54.90;26.95;;;14.30;99.90;;;;;;5049808;28;20041;-59
2021/11/19 10:58:58;;;;;;;63.95;28.42;;;14.30;99.90;;;;;;5052410;28;20032;-60
2021/11/19 11:01:58;;;;;;;54.30;27.70;;;14.50;99.90;;;;;;5050294;28;20498;-59
2021/11/19 11:04:54;;;;;;;52.38;25.60;;;14.30;99.90;;;;;;5048024;28;20030;-59
2021/11/19 11:07:35;;;;;;;55.50;26.27;;;14.30;99.90;;;;;;5043038;28;20121;-60
2021/11/19 11:10:07;;;;;;;51.42;26.65;;;14.20;99.90;;;;;;5039578;28;20432;-60
2021/11/19 11:12:51;;;;;;;51.55;25.70;;;14.10;99.90;;;;;;5051923;28;20029;-60
2021/11/19 11:15:19;;;;;;;53.75;27.33;;;14.10;99.90;;;;;;5047216;28;20029;-60
2021/11/19 11:18:06;;;;;;;52.90;27.92;;;14.10;99.90;;;;;;5063915;28;20059;-61
2021/11/19 11:20:40;;;;;;;50.63;25.70;;;14.40;99.90;;;;;;5047238;28;20482;-61
2021/11/19 11:23:27;;;;;;;57.78;27.92;;;14.10;99.90;;;;;;5066968;28;20094;-61
2021/11/19 11:26:02;;;;;;;52.20;27.45;;;14.20;99.90;;;;;;5038386;28;20033;-60
2021/11/19 11:28:45;;;;;;;51.00;25.48;;;14.30;99.90;;;;;;5051320;28;20080;-61
2021/11/19 11:31:32;;;;;;;48.25;25.77;;;14.40;99.90;;;;;;5046788;28;20147;-58
2021/11/19 11:34:33;;;;;;;52.60;26.80;;;14.30;99.90;;;;;;5049006;28;20028;-60
2021/11/19 11:37:16;;;;;;;53.60;26.88;;;14.40;99.90;;;;;;5044011;28;20035;-60
2021/11/19 11:39:55;;;;;;;47.58;26.70;;;14.40;99.90;;;;;;5047777;28;20036;-60
2021/11/19 11:42:30;;;;;;;52.00;27.02;;;14.30;99.90;;;;;;5049336;28;20040;-60
2021/11/19 11:45:00;;;;;;;55.30;26.00;;;14.50;99.90;;;;;;5045804;28;20499;-60
2021/11/19 11:47:30;;;;;;;52.40;25.85;;;;;;;;;;5034219;28;20618;-60
2021/11/19 11:49:59;;;;;;;47.03;26.42;;;;;;;;;;5050244;28;20025;-60
2021/11/19 11:52:32;;;;;;;49.63;27.25;;;;;;;;;;5049301;28;20394;-59
2021/11/19 11:54:58;;;;;;;50.63;24.90;;;;;;;;;;5047504;28;20022;-60
2021/11/19 11:57:30;;;;;;;53.50;25.73;;;;;;;;;;5051318;28;20348;-60
2021/11/19 11:59:59;;;;;;;46.72;25.52;;;;;;;;;;5049361;28;20045;-60
2021/11/19 12:02:35;;;;;;;41.50;24.42;;;;;;;;;;5046528;28;20506;-60
2021/11/19 12:05:24;;;;;;;49.40;26.30;;;;;;;;;;5042873;28;20436;-59
2021/11/19 12:07:50;;;;;;;42.40;24.48;;;;;;;;;;5050077;28;20047;-59
2021/11/19 12:10:36;;;;;;;43.28;24.27;;;;;;;;;;5048257;28;20078;-59
2021/11/19 12:13:27;;;;;;;39.88;24.92;;;14.70;99.90;;;;;;5035536;28;20394;-59
2021/11/19 12:16:04;;;;;;;39.80;22.52;;;14.80;99.90;;;;;;5048029;28;20112;-59
2021/11/19 12:18:39;;;;;;;36.67;21.73;;;14.90;99.90;;;;;;5055287;28;20032;-59
2021/11/19 12:21:28;;;;;;;39.70;23.98;;;14.90;99.90;;;;;;5043527;28;20025;-60
2021/11/19 12:23:57;;;;;;;43.50;22.25;;;15.00;99.60;;;;;;5051546;28;20029;-60
2021/11/19 12:26:49;;;;;;;42.88;25.25;;;15.20;99.90;;;;;;5050120;28;20040;-61
2021/11/19 12:29:39;;;;;;;39.47;23.20;;;15.00;99.50;;;;;;5054410;28;20096;-61
2021/11/19 12:32:28;;;;;;;41.45;24.83;;;14.90;99.60;;;;;;5051802;28;20124;-60
2021/11/19 12:35:14;;;;;;;45.03;24.15;;;14.90;99.90;;;;;;5050689;28;20084;-60
2021/11/19 12:37:51;;;;;;;36.95;23.80;;;15.10;99.90;;;;;;5048707;28;22234;-61
2021/11/19 12:40:44;;;;;;;39.13;23.58;;;15.00;99.90;;;;;;5040579;28;20063;-60
2021/11/19 12:43:24;;;;;;;36.35;22.95;;;15.20;99.90;;;;;;5042644;28;20116;-60
2021/11/19 12:45:57;;;;;;;38.25;24.00;;;15.30;99.80;;;;;;5052735;28;20037;-60
2021/11/19 12:48:34;;;;;;;35.10;22.10;;;15.30;99.40;;;;;;5055174;28;20114;-60
2021/11/19 12:51:19;;;;;;;39.05;23.25;;;15.10;99.70;;;;;;5062946;28;20119;-59
2021/11/19 12:54:14;;;;;;;35.17;22.55;;;15.30;99.80;;;;;;5052319;28;20040;-60
2021/11/19 12:56:55;;;;;;;39.28;23.63;;;15.20;99.70;;;;;;5025112;28;20038;-60
2021/11/19 12:59:22;;;;;;;41.95;23.05;;;15.30;99.90;;;;;;5051521;28;20044;-60
2021/11/19 13:02:24;;;;;;;36.63;22.48;;;15.40;99.90;;;;;;5046858;28;22247;-60
2021/11/19 13:05:20;;;;;;;40.33;23.05;;;15.40;99.80;;;;;;5048383;28;20064;-60